createdAt,value
2018-06-11T00:00:06.981Z,19.6111111111
2018-06-11T00:00:19.425Z,19.6666666667
2018-06-11T00:00:31.847Z,19.6111111111
2018-06-11T00:00:44.287Z,19.6111111111
2018-06-11T00:00:56.861Z,19.6111111111
2018-06-11T00:01:09.285Z,19.6111111111
2018-06-11T00:01:21.707Z,19.6111111111
2018-06-11T00:01:34.132Z,19.6111111111
2018-06-11T00:01:46.548Z,19.6111111111
2018-06-11T00:01:58.947Z,19.6111111111
2018-06-11T00:02:11.425Z,19.6111111111
2018-06-11T00:02:23.930Z,19.6111111111
2018-06-11T00:02:36.355Z,19.6111111111
2018-06-11T00:02:48.757Z,19.6111111111
2018-06-11T00:03:01.188Z,19.6111111111
2018-06-11T00:03:13.677Z,19.6111111111
2018-06-11T00:03:26.073Z,19.6111111111
2018-06-11T00:03:38.474Z,19.6111111111
2018-06-11T00:03:50.892Z,19.6111111111
2018-06-11T00:04:03.317Z,19.6111111111
2018-06-11T00:04:15.728Z,19.6111111111
2018-06-11T00:04:28.134Z,19.6111111111
2018-06-11T00:04:40.517Z,19.6111111111
2018-06-11T00:04:52.930Z,19.6111111111
2018-06-11T00:05:05.345Z,19.6111111111
2018-06-11T00:05:17.788Z,19.6111111111
2018-06-11T00:05:30.214Z,19.6111111111
2018-06-11T00:05:42.650Z,19.6111111111
2018-06-11T00:05:55.400Z,19.6111111111
2018-06-11T00:06:07.782Z,19.6111111111
2018-06-11T00:06:20.182Z,19.5555555556
2018-06-11T00:06:32.581Z,19.6111111111
2018-06-11T00:06:44.991Z,19.6111111111
2018-06-11T00:06:57.388Z,19.5555555556
2018-06-11T00:07:09.779Z,19.6111111111
2018-06-11T00:07:22.165Z,19.6111111111
2018-06-11T00:07:34.570Z,19.6111111111
2018-06-11T00:07:47.003Z,19.6111111111
2018-06-11T00:07:59.397Z,19.6111111111
2018-06-11T00:08:11.812Z,19.6111111111
2018-06-11T00:08:24.225Z,19.6111111111
2018-06-11T00:08:36.667Z,19.6111111111
2018-06-11T00:08:49.087Z,19.6111111111
2018-06-11T00:09:01.481Z,19.6111111111
2018-06-11T00:09:13.896Z,19.6111111111
2018-06-11T00:09:26.304Z,19.6111111111
2018-06-11T00:09:38.689Z,19.5555555556
2018-06-11T00:09:51.120Z,19.6111111111
2018-06-11T00:10:03.527Z,19.5555555556
2018-06-11T00:10:15.929Z,19.5555555556
2018-06-11T00:10:28.327Z,19.5555555556
2018-06-11T00:10:40.760Z,19.5555555556
2018-06-11T00:10:53.190Z,19.5555555556
2018-06-11T00:11:05.597Z,19.5555555556
2018-06-11T00:11:18.051Z,19.5555555556
2018-06-11T00:11:30.460Z,19.5555555556
2018-06-11T00:11:42.873Z,19.5555555556
2018-06-11T00:11:55.259Z,19.5555555556
2018-06-11T00:12:07.684Z,19.5555555556
2018-06-11T00:12:20.093Z,19.5555555556
2018-06-11T00:12:32.514Z,19.5555555556
2018-06-11T00:12:44.930Z,19.5555555556
2018-06-11T00:12:57.349Z,19.5555555556
2018-06-11T00:13:09.737Z,19.5555555556
2018-06-11T00:13:22.138Z,19.5555555556
2018-06-11T00:13:34.542Z,19.5555555556
2018-06-11T00:13:46.934Z,19.5555555556
2018-06-11T00:13:59.324Z,19.5
2018-06-11T00:14:11.866Z,19.5555555556
2018-06-11T00:14:24.253Z,19.5
2018-06-11T00:14:36.672Z,19.5555555556
2018-06-11T00:14:49.078Z,19.5
2018-06-11T00:15:01.495Z,19.5555555556
2018-06-11T00:15:13.906Z,19.5
2018-06-11T00:15:26.309Z,19.5
2018-06-11T00:15:38.781Z,19.5
2018-06-11T00:15:51.181Z,19.5555555556
2018-06-11T00:16:03.595Z,19.5
2018-06-11T00:16:16.028Z,19.5
2018-06-11T00:16:28.437Z,19.5
2018-06-11T00:16:40.834Z,19.5
2018-06-11T00:16:53.396Z,19.5
2018-06-11T00:17:05.810Z,19.5
2018-06-11T00:17:18.217Z,19.5
2018-06-11T00:17:30.629Z,19.5
2018-06-11T00:17:43.025Z,19.5
2018-06-11T00:17:55.577Z,19.4444444444
2018-06-11T00:18:08.004Z,19.4444444444
2018-06-11T00:18:20.461Z,19.4444444444
2018-06-11T00:18:32.868Z,19.4444444444
2018-06-11T00:18:45.275Z,19.4444444444
2018-06-11T00:18:58.095Z,19.4444444444
2018-06-11T00:19:10.546Z,19.4444444444
2018-06-11T00:19:22.976Z,19.4444444444
2018-06-11T00:19:35.385Z,19.3888888889
2018-06-11T00:19:47.785Z,19.4444444444
2018-06-11T00:20:00.233Z,19.4444444444
2018-06-11T00:20:12.643Z,19.4444444444
2018-06-11T00:20:25.042Z,19.4444444444
2018-06-11T00:20:37.441Z,19.3888888889
2018-06-11T00:20:49.848Z,19.4444444444
2018-06-11T00:21:02.254Z,19.3888888889
2018-06-11T00:21:14.678Z,19.4444444444
2018-06-11T00:21:27.067Z,19.3888888889
2018-06-11T00:21:39.457Z,19.3888888889
2018-06-11T00:21:51.869Z,19.3888888889
2018-06-11T00:22:04.266Z,19.3888888889
2018-06-11T00:22:16.654Z,19.4444444444
2018-06-11T00:22:29.053Z,19.3888888889
2018-06-11T00:22:41.490Z,19.3888888889
2018-06-11T00:22:53.971Z,19.3888888889
2018-06-11T00:23:07.223Z,19.3888888889
2018-06-11T00:23:19.634Z,19.3888888889
2018-06-11T00:23:32.085Z,19.3888888889
2018-06-11T00:23:44.477Z,19.3888888889
2018-06-11T00:23:56.898Z,19.3888888889
2018-06-11T00:24:09.319Z,19.3333333333
2018-06-11T00:24:21.742Z,19.3333333333
2018-06-11T00:24:34.162Z,19.3333333333
2018-06-11T00:24:46.712Z,19.3888888889
2018-06-11T00:24:59.118Z,19.3333333333
2018-06-11T00:25:11.518Z,19.3333333333
2018-06-11T00:25:23.937Z,19.3333333333
2018-06-11T00:25:36.328Z,19.3333333333
2018-06-11T00:25:48.731Z,19.3333333333
2018-06-11T00:26:01.164Z,19.3333333333
2018-06-11T00:26:13.593Z,19.3333333333
2018-06-11T00:26:26.015Z,19.3333333333
2018-06-11T00:26:38.476Z,19.3333333333
2018-06-11T00:26:50.920Z,19.3333333333
2018-06-11T00:27:03.390Z,19.3333333333
2018-06-11T00:27:15.813Z,19.3333333333
2018-06-11T00:27:28.298Z,19.3333333333
2018-06-11T00:27:40.693Z,19.3333333333
2018-06-11T00:27:53.107Z,19.2777777778
2018-06-11T00:28:05.533Z,19.2777777778
2018-06-11T00:28:17.975Z,19.2777777778
2018-06-11T00:28:30.403Z,19.2777777778
2018-06-11T00:28:42.840Z,19.2777777778
2018-06-11T00:28:55.274Z,19.2777777778
2018-06-11T00:29:07.704Z,19.2777777778
2018-06-11T00:29:20.115Z,19.2777777778
2018-06-11T00:29:32.547Z,19.2777777778
2018-06-11T00:29:45.069Z,19.2777777778
2018-06-11T00:29:57.495Z,19.2777777778
2018-06-11T00:30:09.931Z,19.2777777778
2018-06-11T00:30:22.349Z,19.2777777778
2018-06-11T00:30:34.757Z,19.2777777778
2018-06-11T00:30:47.143Z,19.2222222222
2018-06-11T00:30:59.541Z,19.2777777778
2018-06-11T00:31:11.934Z,19.2222222222
2018-06-11T00:31:24.343Z,19.2222222222
2018-06-11T00:31:36.737Z,19.2777777778
2018-06-11T00:31:49.137Z,19.2222222222
2018-06-11T00:32:01.535Z,19.2777777778
2018-06-11T00:32:13.938Z,19.2777777778
2018-06-11T00:32:26.348Z,19.2777777778
2018-06-11T00:32:38.758Z,19.2222222222
2018-06-11T00:32:51.166Z,19.2222222222
2018-06-11T00:33:03.574Z,19.2222222222
2018-06-11T00:33:15.968Z,19.2222222222
2018-06-11T00:33:28.380Z,19.2222222222
2018-06-11T00:33:40.794Z,19.2222222222
2018-06-11T00:33:53.220Z,19.2222222222
2018-06-11T00:34:05.625Z,19.2222222222
2018-06-11T00:34:18.037Z,19.1666666667
2018-06-11T00:34:30.457Z,19.2222222222
2018-06-11T00:34:42.862Z,19.2222222222
2018-06-11T00:34:55.347Z,19.2222222222
2018-06-11T00:35:07.772Z,19.2222222222
2018-06-11T00:35:20.180Z,19.1666666667
2018-06-11T00:35:32.562Z,19.2222222222
2018-06-11T00:35:44.951Z,19.1666666667
2018-06-11T00:35:57.358Z,19.1666666667
2018-06-11T00:36:09.753Z,19.1666666667
2018-06-11T00:36:22.175Z,19.1666666667
2018-06-11T00:36:34.576Z,19.1666666667
2018-06-11T00:36:47.013Z,19.1666666667
2018-06-11T00:36:59.407Z,19.1666666667
2018-06-11T00:37:11.842Z,19.1666666667
2018-06-11T00:37:24.272Z,19.1666666667
2018-06-11T00:37:36.662Z,19.1666666667
2018-06-11T00:37:49.069Z,19.1666666667
2018-06-11T00:38:01.457Z,19.1666666667
2018-06-11T00:38:13.858Z,19.1666666667
2018-06-11T00:38:26.253Z,19.1666666667
2018-06-11T00:38:38.652Z,19.1666666667
2018-06-11T00:38:51.077Z,19.1666666667
2018-06-11T00:39:03.530Z,19.1666666667
2018-06-11T00:39:15.924Z,19.1666666667
2018-06-11T00:39:28.318Z,19.1111111111
2018-06-11T00:39:40.757Z,19.1666666667
2018-06-11T00:39:53.249Z,19.1666666667
2018-06-11T00:40:05.681Z,19.1666666667
2018-06-11T00:40:18.086Z,19.1666666667
2018-06-11T00:40:30.518Z,19.1666666667
2018-06-11T00:40:42.970Z,19.1666666667
2018-06-11T00:40:55.370Z,19.1111111111
2018-06-11T00:41:07.779Z,19.1111111111
2018-06-11T00:41:20.207Z,19.1111111111
2018-06-11T00:41:32.625Z,19.1666666667
2018-06-11T00:41:45.019Z,19.1111111111
2018-06-11T00:41:57.470Z,19.1111111111
2018-06-11T00:42:09.890Z,19.1111111111
2018-06-11T00:42:22.295Z,19.1111111111
2018-06-11T00:42:34.721Z,19.1111111111
2018-06-11T00:42:47.137Z,19.1111111111
2018-06-11T00:42:59.563Z,19.1111111111
2018-06-11T00:43:11.966Z,19.1111111111
2018-06-11T00:43:24.405Z,19.1111111111
2018-06-11T00:43:36.823Z,19.1111111111
2018-06-11T00:43:49.276Z,19.0555555556
2018-06-11T00:44:01.757Z,19.1111111111
2018-06-11T00:44:14.168Z,19.1111111111
2018-06-11T00:44:26.595Z,19.1111111111
2018-06-11T00:44:38.988Z,19.1111111111
2018-06-11T00:44:51.434Z,19.0555555556
2018-06-11T00:45:03.843Z,19.0555555556
2018-06-11T00:45:16.260Z,19.1111111111
2018-06-11T00:45:28.660Z,19.0555555556
2018-06-11T00:45:41.077Z,19.0555555556
2018-06-11T00:45:53.597Z,19.0555555556
2018-06-11T00:46:05.997Z,19.0555555556
2018-06-11T00:46:18.399Z,19.0555555556
2018-06-11T00:46:30.845Z,19.0555555556
2018-06-11T00:46:43.251Z,19.0555555556
2018-06-11T00:46:55.687Z,19.0555555556
2018-06-11T00:47:08.102Z,19.0555555556
2018-06-11T00:47:20.512Z,19.0555555556
2018-06-11T00:47:32.906Z,19.0555555556
2018-06-11T00:47:45.300Z,19.0555555556
2018-06-11T00:47:57.696Z,19.0555555556
2018-06-11T00:48:10.126Z,19.0555555556
2018-06-11T00:48:22.519Z,19.0555555556
2018-06-11T00:48:35.139Z,19.0555555556
2018-06-11T00:48:47.541Z,19
2018-06-11T00:48:59.949Z,19
2018-06-11T00:49:12.403Z,19
2018-06-11T00:49:24.825Z,19
2018-06-11T00:49:37.245Z,19
2018-06-11T00:49:49.664Z,19
2018-06-11T00:50:02.085Z,19
2018-06-11T00:50:14.507Z,19
2018-06-11T00:50:26.908Z,19
2018-06-11T00:50:39.302Z,19
2018-06-11T00:50:51.715Z,19
2018-06-11T00:51:04.111Z,19
2018-06-11T00:51:16.556Z,18.9444444444
2018-06-11T00:51:28.970Z,19
2018-06-11T00:51:41.360Z,18.9444444444
2018-06-11T00:51:53.766Z,19
2018-06-11T00:52:06.176Z,19
2018-06-11T00:52:18.707Z,19
2018-06-11T00:52:31.110Z,18.9444444444
2018-06-11T00:52:43.514Z,18.9444444444
2018-06-11T00:52:55.961Z,19
2018-06-11T00:53:08.410Z,18.9444444444
2018-06-11T00:53:20.840Z,18.9444444444
2018-06-11T00:53:33.240Z,18.9444444444
2018-06-11T00:53:45.643Z,18.9444444444
2018-06-11T00:53:58.070Z,18.9444444444
2018-06-11T00:54:10.460Z,18.9444444444
2018-06-11T00:54:22.872Z,18.9444444444
2018-06-11T00:54:35.300Z,18.9444444444
2018-06-11T00:54:47.738Z,18.9444444444
2018-06-11T00:55:00.150Z,18.9444444444
2018-06-11T00:55:12.556Z,18.9444444444
2018-06-11T00:55:24.986Z,18.9444444444
2018-06-11T00:55:37.408Z,18.9444444444
2018-06-11T00:55:49.813Z,18.9444444444
2018-06-11T00:56:02.221Z,18.9444444444
2018-06-11T00:56:14.676Z,18.9444444444
2018-06-11T00:56:27.101Z,18.9444444444
2018-06-11T00:56:39.496Z,18.9444444444
2018-06-11T00:56:51.924Z,18.8888888889
2018-06-11T00:57:04.360Z,18.8888888889
2018-06-11T00:57:16.789Z,18.9444444444
2018-06-11T00:57:29.331Z,18.8888888889
2018-06-11T00:57:41.757Z,18.8888888889
2018-06-11T00:57:54.171Z,18.8888888889
2018-06-11T00:58:06.580Z,18.8888888889
2018-06-11T00:58:18.977Z,18.8888888889
2018-06-11T00:58:31.385Z,18.8888888889
2018-06-11T00:58:43.860Z,18.8888888889
2018-06-11T00:58:56.270Z,18.8888888889
2018-06-11T00:59:08.697Z,18.8888888889
2018-06-11T00:59:21.142Z,18.8888888889
2018-06-11T00:59:33.599Z,18.8888888889
2018-06-11T00:59:46.013Z,18.8888888889
2018-06-11T00:59:58.477Z,18.8888888889
2018-06-11T01:00:10.894Z,18.8333333333
2018-06-11T01:00:23.313Z,18.8333333333
2018-06-11T01:00:35.771Z,18.8888888889
2018-06-11T01:00:48.225Z,18.8333333333
2018-06-11T01:01:00.769Z,18.8333333333
2018-06-11T01:01:13.192Z,18.8333333333
2018-06-11T01:01:25.652Z,18.8333333333
2018-06-11T01:01:38.079Z,18.8333333333
2018-06-11T01:01:50.553Z,18.8333333333
2018-06-11T01:02:02.967Z,18.8333333333
2018-06-11T01:02:15.359Z,18.8333333333
2018-06-11T01:02:27.914Z,18.8333333333
2018-06-11T01:02:40.310Z,18.8333333333
2018-06-11T01:02:52.755Z,18.8333333333
2018-06-11T01:03:05.160Z,18.8333333333
2018-06-11T01:03:17.719Z,18.8333333333
2018-06-11T01:03:30.194Z,18.8333333333
2018-06-11T01:03:42.604Z,18.7777777778
2018-06-11T01:03:55.031Z,18.7777777778
2018-06-11T01:04:07.451Z,18.8333333333
2018-06-11T01:04:19.874Z,18.8333333333
2018-06-11T01:04:32.280Z,18.8333333333
2018-06-11T01:04:44.671Z,18.7777777778
2018-06-11T01:04:57.096Z,18.8333333333
2018-06-11T01:05:09.563Z,18.7777777778
2018-06-11T01:05:21.990Z,18.7777777778
2018-06-11T01:05:34.383Z,18.7777777778
2018-06-11T01:05:46.767Z,18.7777777778
2018-06-11T01:05:59.325Z,18.7777777778
2018-06-11T01:06:11.764Z,18.7777777778
2018-06-11T01:06:24.189Z,18.7777777778
2018-06-11T01:06:36.591Z,18.7777777778
2018-06-11T01:06:48.996Z,18.7777777778
2018-06-11T01:07:01.424Z,18.7777777778
2018-06-11T01:07:13.845Z,18.7777777778
2018-06-11T01:07:26.259Z,18.7777777778
2018-06-11T01:07:38.668Z,18.7777777778
2018-06-11T01:07:51.061Z,18.7777777778
2018-06-11T01:08:03.498Z,18.7777777778
2018-06-11T01:08:15.972Z,18.7777777778
2018-06-11T01:08:28.370Z,18.7222222222
2018-06-11T01:08:40.765Z,18.7777777778
2018-06-11T01:08:53.161Z,18.7777777778
2018-06-11T01:09:05.568Z,18.7777777778
2018-06-11T01:09:17.988Z,18.7222222222
2018-06-11T01:09:30.394Z,18.7222222222
2018-06-11T01:09:42.849Z,18.7222222222
2018-06-11T01:09:55.294Z,18.7222222222
2018-06-11T01:10:07.702Z,18.7222222222
2018-06-11T01:10:20.108Z,18.7222222222
2018-06-11T01:10:32.546Z,18.7222222222
2018-06-11T01:10:44.963Z,18.7222222222
2018-06-11T01:10:57.387Z,18.7222222222
2018-06-11T01:11:09.805Z,18.7222222222
2018-06-11T01:11:22.232Z,18.7222222222
2018-06-11T01:11:34.647Z,18.7222222222
2018-06-11T01:11:47.048Z,18.7222222222
2018-06-11T01:11:59.468Z,18.7222222222
2018-06-11T01:12:11.895Z,18.7222222222
2018-06-11T01:12:24.314Z,18.6666666667
2018-06-11T01:12:36.714Z,18.6666666667
2018-06-11T01:12:49.114Z,18.6666666667
2018-06-11T01:13:01.499Z,18.6666666667
2018-06-11T01:13:13.914Z,18.6666666667
2018-06-11T01:13:26.317Z,18.7222222222
2018-06-11T01:13:38.734Z,18.6666666667
2018-06-11T01:13:51.262Z,18.6666666667
2018-06-11T01:14:03.813Z,18.6666666667
2018-06-11T01:14:16.208Z,18.6666666667
2018-06-11T01:14:28.633Z,18.6666666667
2018-06-11T01:14:41.032Z,18.6666666667
2018-06-11T01:14:53.438Z,18.6666666667
2018-06-11T01:15:05.855Z,18.6666666667
2018-06-11T01:15:18.268Z,18.6666666667
2018-06-11T01:15:30.677Z,18.6666666667
2018-06-11T01:15:43.082Z,18.6666666667
2018-06-11T01:15:55.506Z,18.6666666667
2018-06-11T01:16:07.930Z,18.6666666667
2018-06-11T01:16:20.435Z,18.6666666667
2018-06-11T01:16:32.829Z,18.6666666667
2018-06-11T01:16:45.301Z,18.6666666667
2018-06-11T01:16:57.702Z,18.6666666667
2018-06-11T01:17:10.128Z,18.6666666667
2018-06-11T01:17:22.535Z,18.6666666667
2018-06-11T01:17:34.941Z,18.6666666667
2018-06-11T01:17:47.348Z,18.6666666667
2018-06-11T01:17:59.864Z,18.6666666667
2018-06-11T01:18:12.309Z,18.6666666667
2018-06-11T01:18:24.743Z,18.6666666667
2018-06-11T01:18:37.154Z,18.6111111111
2018-06-11T01:18:49.547Z,18.6666666667
2018-06-11T01:19:07.096Z,18.6666666667
2018-06-11T01:19:19.527Z,18.6666666667
2018-06-11T01:19:31.939Z,18.6666666667
2018-06-11T01:19:44.326Z,18.6666666667
2018-06-11T01:19:56.759Z,18.6111111111
2018-06-11T01:20:09.186Z,18.6666666667
2018-06-11T01:20:21.667Z,18.6666666667
2018-06-11T01:20:34.114Z,18.6666666667
2018-06-11T01:20:46.552Z,18.6666666667
2018-06-11T01:20:58.957Z,18.6666666667
2018-06-11T01:21:11.368Z,18.6111111111
2018-06-11T01:21:23.786Z,18.6666666667
2018-06-11T01:21:36.186Z,18.6666666667
2018-06-11T01:21:48.601Z,18.6666666667
2018-06-11T01:22:01.012Z,18.6111111111
2018-06-11T01:22:13.428Z,18.6666666667
2018-06-11T01:22:25.865Z,18.6666666667
2018-06-11T01:22:38.293Z,18.6111111111
2018-06-11T01:22:50.677Z,18.6666666667
2018-06-11T01:23:03.113Z,18.6111111111
2018-06-11T01:23:15.489Z,18.6666666667
2018-06-11T01:23:27.874Z,18.6111111111
2018-06-11T01:23:40.334Z,18.6111111111
2018-06-11T01:23:52.766Z,18.6666666667
2018-06-11T01:24:05.170Z,18.6666666667
2018-06-11T01:24:17.565Z,18.6666666667
2018-06-11T01:24:29.995Z,18.6666666667
2018-06-11T01:24:42.399Z,18.6111111111
2018-06-11T01:24:54.808Z,18.6666666667
2018-06-11T01:25:07.248Z,18.6666666667
2018-06-11T01:25:19.648Z,18.6666666667
2018-06-11T01:25:32.044Z,18.6111111111
2018-06-11T01:25:44.440Z,18.6111111111
2018-06-11T01:25:56.869Z,18.6111111111
2018-06-11T01:26:09.336Z,18.6666666667
2018-06-11T01:26:21.731Z,18.6111111111
2018-06-11T01:26:34.139Z,18.6111111111
2018-06-11T01:26:46.577Z,18.6111111111
2018-06-11T01:26:58.970Z,18.6111111111
2018-06-11T01:27:11.389Z,18.6666666667
2018-06-11T01:27:23.787Z,18.6666666667
2018-06-11T01:27:36.188Z,18.6111111111
2018-06-11T01:27:48.585Z,18.6111111111
2018-06-11T01:28:00.977Z,18.6111111111
2018-06-11T01:28:13.397Z,18.6666666667
2018-06-11T01:28:25.804Z,18.6111111111
2018-06-11T01:28:38.234Z,18.6111111111
2018-06-11T01:28:50.630Z,18.6666666667
2018-06-11T01:29:03.026Z,18.6666666667
2018-06-11T01:29:15.450Z,18.6666666667
2018-06-11T01:29:27.872Z,18.6111111111
2018-06-11T01:29:40.319Z,18.6111111111
2018-06-11T01:29:52.718Z,18.6666666667
2018-06-11T01:30:05.150Z,18.6111111111
2018-06-11T01:30:17.545Z,18.6666666667
2018-06-11T01:30:30.007Z,18.6666666667
2018-06-11T01:30:42.405Z,18.6111111111
2018-06-11T01:30:54.912Z,18.6111111111
2018-06-11T01:31:07.312Z,18.6111111111
2018-06-11T01:31:19.716Z,18.6666666667
2018-06-11T01:31:32.112Z,18.6111111111
2018-06-11T01:31:44.583Z,18.6111111111
2018-06-11T01:31:56.991Z,18.6111111111
2018-06-11T01:32:09.404Z,18.6666666667
2018-06-11T01:32:21.805Z,18.6111111111
2018-06-11T01:32:34.205Z,18.6111111111
2018-06-11T01:32:46.606Z,18.6111111111
2018-06-11T01:32:59.003Z,18.6111111111
2018-06-11T01:33:11.444Z,18.6111111111
2018-06-11T01:33:23.844Z,18.6111111111
2018-06-11T01:33:36.247Z,18.6111111111
2018-06-11T01:33:48.673Z,18.6111111111
2018-06-11T01:34:01.062Z,18.6111111111
2018-06-11T01:34:13.477Z,18.6111111111
2018-06-11T01:34:25.886Z,18.6111111111
2018-06-11T01:34:38.342Z,18.6666666667
2018-06-11T01:34:50.739Z,18.6111111111
2018-06-11T01:35:03.131Z,18.6111111111
2018-06-11T01:35:15.539Z,18.6111111111
2018-06-11T01:35:27.943Z,18.6111111111
2018-06-11T01:35:40.371Z,18.5555555556
2018-06-11T01:35:52.775Z,18.6111111111
2018-06-11T01:36:05.238Z,18.6111111111
2018-06-11T01:36:17.636Z,18.6666666667
2018-06-11T01:36:30.056Z,18.6666666667
2018-06-11T01:36:42.481Z,18.6111111111
2018-06-11T01:36:54.890Z,18.6111111111
2018-06-11T01:37:07.298Z,18.6111111111
2018-06-11T01:37:19.713Z,18.6111111111
2018-06-11T01:37:32.110Z,18.6111111111
2018-06-11T01:37:44.585Z,18.5555555556
2018-06-11T01:37:57.002Z,18.6111111111
2018-06-11T01:38:09.418Z,18.5555555556
2018-06-11T01:38:21.820Z,18.6111111111
2018-06-11T01:38:34.228Z,18.6111111111
2018-06-11T01:38:46.642Z,18.5555555556
2018-06-11T01:38:59.040Z,18.5555555556
2018-06-11T01:39:11.447Z,18.5555555556
2018-06-11T01:39:23.831Z,18.5555555556
2018-06-11T01:39:36.267Z,18.6111111111
2018-06-11T01:39:48.664Z,18.5555555556
2018-06-11T01:40:01.088Z,18.5555555556
2018-06-11T01:40:13.509Z,18.5555555556
2018-06-11T01:40:25.894Z,18.5555555556
2018-06-11T01:40:38.323Z,18.5555555556
2018-06-11T01:40:50.725Z,18.5555555556
2018-06-11T01:41:03.215Z,18.5555555556
2018-06-11T01:41:15.634Z,18.5555555556
2018-06-11T01:41:28.086Z,18.5555555556
2018-06-11T01:41:40.487Z,18.5555555556
2018-06-11T01:41:52.917Z,18.5555555556
2018-06-11T01:42:05.396Z,18.5555555556
2018-06-11T01:42:17.832Z,18.5555555556
2018-06-11T01:42:30.264Z,18.5555555556
2018-06-11T01:42:42.675Z,18.5555555556
2018-06-11T01:42:55.088Z,18.5555555556
2018-06-11T01:43:07.469Z,18.5555555556
2018-06-11T01:43:19.929Z,18.5555555556
2018-06-11T01:43:32.312Z,18.5555555556
2018-06-11T01:43:44.695Z,18.5555555556
2018-06-11T01:43:57.106Z,18.6111111111
2018-06-11T01:44:09.526Z,18.5555555556
2018-06-11T01:44:21.934Z,18.5555555556
2018-06-11T01:44:34.395Z,18.5555555556
2018-06-11T01:44:46.803Z,18.5555555556
2018-06-11T01:44:59.198Z,18.5555555556
2018-06-11T01:45:11.622Z,18.6111111111
2018-06-11T01:45:24.036Z,18.5555555556
2018-06-11T01:45:36.433Z,18.5555555556
2018-06-11T01:45:48.847Z,18.5555555556
2018-06-11T01:46:01.454Z,18.5555555556
2018-06-11T01:46:13.855Z,18.5555555556
2018-06-11T01:46:26.259Z,18.6111111111
2018-06-11T01:46:38.676Z,18.5555555556
2018-06-11T01:46:51.067Z,18.6111111111
2018-06-11T01:47:03.466Z,18.6111111111
2018-06-11T01:47:15.943Z,18.5555555556
2018-06-11T01:47:28.334Z,18.5555555556
2018-06-11T01:47:40.731Z,18.5555555556
2018-06-11T01:47:53.124Z,18.5555555556
2018-06-11T01:48:05.535Z,18.5555555556
2018-06-11T01:48:17.964Z,18.5555555556
2018-06-11T01:48:30.526Z,18.5555555556
2018-06-11T01:48:42.957Z,18.5555555556
2018-06-11T01:48:55.339Z,18.5555555556
2018-06-11T01:49:07.765Z,18.5555555556
2018-06-11T01:49:20.157Z,18.5555555556
2018-06-11T01:49:32.547Z,18.5555555556
2018-06-11T01:49:44.956Z,18.5555555556
2018-06-11T01:49:57.355Z,18.5555555556
2018-06-11T01:50:09.772Z,18.5555555556
2018-06-11T01:50:22.169Z,18.5555555556
2018-06-11T01:50:34.605Z,18.5555555556
2018-06-11T01:50:46.994Z,18.5555555556
2018-06-11T01:50:59.391Z,18.5555555556
2018-06-11T01:51:11.782Z,18.5555555556
2018-06-11T01:51:24.188Z,18.5555555556
2018-06-11T01:51:36.591Z,18.5555555556
2018-06-11T01:51:48.988Z,18.5555555556
2018-06-11T01:52:01.392Z,18.5555555556
2018-06-11T01:52:13.815Z,18.5555555556
2018-06-11T01:52:26.234Z,18.5
2018-06-11T01:52:38.652Z,18.5555555556
2018-06-11T01:52:51.053Z,18.5555555556
2018-06-11T01:53:03.493Z,18.5555555556
2018-06-11T01:53:15.923Z,18.5555555556
2018-06-11T01:53:28.377Z,18.5
2018-06-11T01:53:40.859Z,18.5
2018-06-11T01:53:53.297Z,18.5
2018-06-11T01:54:05.704Z,18.5
2018-06-11T01:54:18.125Z,18.5
2018-06-11T01:54:30.532Z,18.5
2018-06-11T01:54:42.952Z,18.5
2018-06-11T01:54:55.387Z,18.5
2018-06-11T01:55:07.802Z,18.5
2018-06-11T01:55:20.197Z,18.5
2018-06-11T01:55:32.598Z,18.5
2018-06-11T01:55:45.039Z,18.5
2018-06-11T01:55:57.434Z,18.5
2018-06-11T01:56:09.831Z,18.5
2018-06-11T01:56:22.236Z,18.5
2018-06-11T01:56:34.679Z,18.5
2018-06-11T01:56:47.101Z,18.4444444444
2018-06-11T01:56:59.558Z,18.4444444444
2018-06-11T01:57:11.947Z,18.5
2018-06-11T01:57:24.357Z,18.4444444444
2018-06-11T01:57:36.775Z,18.4444444444
2018-06-11T01:57:49.171Z,18.4444444444
2018-06-11T01:58:01.709Z,18.4444444444
2018-06-11T01:58:14.096Z,18.4444444444
2018-06-11T01:58:26.483Z,18.4444444444
2018-06-11T01:58:38.886Z,18.4444444444
2018-06-11T01:58:51.301Z,18.4444444444
2018-06-11T01:59:03.686Z,18.4444444444
2018-06-11T01:59:16.102Z,18.4444444444
2018-06-11T01:59:28.493Z,18.4444444444
2018-06-11T01:59:40.903Z,18.4444444444
2018-06-11T01:59:53.327Z,18.4444444444
2018-06-11T02:00:05.780Z,18.4444444444
2018-06-11T02:00:18.204Z,18.4444444444
2018-06-11T02:00:30.621Z,18.4444444444
2018-06-11T02:00:43.055Z,18.4444444444
2018-06-11T02:00:55.795Z,18.4444444444
2018-06-11T02:01:08.306Z,18.3888888889
2018-06-11T02:01:21.734Z,18.3888888889
2018-06-11T02:01:34.146Z,18.3888888889
2018-06-11T02:01:46.544Z,18.3888888889
2018-06-11T02:01:58.937Z,18.3888888889
2018-06-11T02:02:11.366Z,18.3888888889
2018-06-11T02:02:23.885Z,18.3888888889
2018-06-11T02:02:36.287Z,18.3888888889
2018-06-11T02:02:48.743Z,18.3888888889
2018-06-11T02:03:01.150Z,18.3888888889
2018-06-11T02:03:13.768Z,18.3888888889
2018-06-11T02:03:26.189Z,18.3888888889
2018-06-11T02:03:38.600Z,18.3888888889
2018-06-11T02:03:51.021Z,18.3888888889
2018-06-11T02:04:03.443Z,18.3888888889
2018-06-11T02:04:15.878Z,18.3888888889
2018-06-11T02:04:28.330Z,18.3333333333
2018-06-11T02:04:40.755Z,18.3888888889
2018-06-11T02:04:53.165Z,18.3888888889
2018-06-11T02:05:05.565Z,18.3888888889
2018-06-11T02:05:17.968Z,18.3888888889
2018-06-11T02:05:30.388Z,18.3888888889
2018-06-11T02:05:42.818Z,18.3888888889
2018-06-11T02:05:55.444Z,18.3888888889
2018-06-11T02:06:07.884Z,18.3888888889
2018-06-11T02:06:20.274Z,18.3888888889
2018-06-11T02:06:32.675Z,18.3888888889
2018-06-11T02:06:45.074Z,18.3888888889
2018-06-11T02:06:57.467Z,18.3888888889
2018-06-11T02:07:09.868Z,18.3888888889
2018-06-11T02:07:22.292Z,18.3888888889
2018-06-11T02:07:34.693Z,18.3888888889
2018-06-11T02:07:47.080Z,18.3888888889
2018-06-11T02:07:59.539Z,18.3888888889
2018-06-11T02:08:11.958Z,18.3888888889
2018-06-11T02:08:24.342Z,18.3888888889
2018-06-11T02:08:36.732Z,18.3888888889
2018-06-11T02:08:49.195Z,18.3333333333
2018-06-11T02:09:01.583Z,18.3888888889
2018-06-11T02:09:13.992Z,18.3888888889
2018-06-11T02:09:26.390Z,18.3888888889
2018-06-11T02:09:38.790Z,18.3888888889
2018-06-11T02:09:51.178Z,18.3888888889